sensor_id;sensor_type;location;lat;lon;timestamp;temperature;humidity
22161;DHT22;49035;48.812;11.762;2023-10-19T00:01:58;7.30;99.90
22161;DHT22;49035;48.812;11.762;2023-10-19T00:04:27;7.30;99.90
22161;DHT22;49035;48.812;11.762;2023-10-19T00:06:57;7.30;99.90
22161;DHT22;49035;48.812;11.762;2023-10-19T00:09:23;7.40;99.90
22161;DHT22;49035;48.812;11.762;2023-10-19T00:11:49;7.60;99.90
22161;DHT22;49035;48.812;11.762;2023-10-19T00:14:17;7.80;99.90
22161;DHT22;49035;48.812;11.762;2023-10-19T00:16:44;7.80;99.90
22161;DHT22;49035;48.812;11.762;2023-10-19T00:19:15;7.80;99.90
22161;DHT22;49035;48.812;11.762;2023-10-19T00:21:45;7.70;99.90
22161;DHT22;49035;48.812;11.762;2023-10-19T00:24:20;7.70;99.90
22161;DHT22;49035;48.812;11.762;2023-10-19T00:26:48;7.80;99.90
22161;DHT22;49035;48.812;11.762;2023-10-19T00:29:14;7.80;99.90
22161;DHT22;49035;48.812;11.762;2023-10-19T00:32:01;7.80;99.90
22161;DHT22;49035;48.812;11.762;2023-10-19T00:34:28;8.00;99.90
22161;DHT22;49035;48.812;11.762;2023-10-19T00:36:56;7.90;99.90
22161;DHT22;49035;48.812;11.762;2023-10-19T00:39:23;7.90;99.90
22161;DHT22;49035;48.812;11.762;2023-10-19T00:41:50;7.80;99.90
22161;DHT22;49035;48.812;11.762;2023-10-19T00:44:16;8.00;99.90
22161;DHT22;49035;48.812;11.762;2023-10-19T00:47:02;8.00;99.90
22161;DHT22;49035;48.812;11.762;2023-10-19T00:49:30;8.00;99.90
22161;DHT22;49035;48.812;11.762;2023-10-19T00:51:58;7.90;99.90
22161;DHT22;49035;48.812;11.762;2023-10-19T00:54:39;7.80;99.90
22161;DHT22;49035;48.812;11.762;2023-10-19T00:57:17;7.90;99.90
22161;DHT22;49035;48.812;11.762;2023-10-19T00:59:47;8.00;99.90
22161;DHT22;49035;48.812;11.762;2023-10-19T01:02:16;8.00;99.90
22161;DHT22;49035;48.812;11.762;2023-10-19T01:04:44;8.10;99.90
22161;DHT22;49035;48.812;11.762;2023-10-19T01:07:11;8.10;99.90
22161;DHT22;49035;48.812;11.762;2023-10-19T01:10:03;8.10;99.90
22161;DHT22;49035;48.812;11.762;2023-10-19T01:12:31;8.00;99.90
22161;DHT22;49035;48.812;11.762;2023-10-19T01:15:07;8.00;99.90
22161;DHT22;49035;48.812;11.762;2023-10-19T01:17:36;8.00;99.90
22161;DHT22;49035;48.812;11.762;2023-10-19T01:20:10;8.00;99.90
22161;DHT22;49035;48.812;11.762;2023-10-19T01:23:03;8.00;99.90
22161;DHT22;49035;48.812;11.762;2023-10-19T01:26:02;8.00;99.90
22161;DHT22;49035;48.812;11.762;2023-10-19T01:28:40;8.10;99.90
22161;DHT22;49035;48.812;11.762;2023-10-19T01:31:06;8.10;99.90
22161;DHT22;49035;48.812;11.762;2023-10-19T01:33:32;8.10;99.90
22161;DHT22;49035;48.812;11.762;2023-10-19T01:35:59;8.00;99.90
22161;DHT22;49035;48.812;11.762;2023-10-19T01:38:40;8.10;99.90
22161;DHT22;49035;48.812;11.762;2023-10-19T01:41:07;8.00;99.90
22161;DHT22;49035;48.812;11.762;2023-10-19T01:43:46;8.10;99.90
22161;DHT22;49035;48.812;11.762;2023-10-19T01:46:13;8.00;99.90
22161;DHT22;49035;48.812;11.762;2023-10-19T01:48:43;8.10;99.90
22161;DHT22;49035;48.812;11.762;2023-10-19T01:51:12;8.10;99.90
22161;DHT22;49035;48.812;11.762;2023-10-19T01:53:40;8.00;99.90
22161;DHT22;49035;48.812;11.762;2023-10-19T01:56:13;8.10;99.90
22161;DHT22;49035;48.812;11.762;2023-10-19T01:58:41;8.00;99.90
22161;DHT22;49035;48.812;11.762;2023-10-19T02:01:08;7.80;99.90
22161;DHT22;49035;48.812;11.762;2023-10-19T02:04:00;7.90;99.90
22161;DHT22;49035;48.812;11.762;2023-10-19T02:06:28;7.80;99.90
22161;DHT22;49035;48.812;11.762;2023-10-19T02:11:42;7.80;99.90
22161;DHT22;49035;48.812;11.762;2023-10-19T02:14:11;7.80;99.90
22161;DHT22;49035;48.812;11.762;2023-10-19T02:16:52;7.80;99.90
22161;DHT22;49035;48.812;11.762;2023-10-19T02:19:21;7.70;99.90
22161;DHT22;49035;48.812;11.762;2023-10-19T02:21:55;7.70;99.90
22161;DHT22;49035;48.812;11.762;2023-10-19T02:24:21;7.60;99.90
22161;DHT22;49035;48.812;11.762;2023-10-19T02:26:50;7.60;99.90
22161;DHT22;49035;48.812;11.762;2023-10-19T02:29:17;7.60;99.90
22161;DHT22;49035;48.812;11.762;2023-10-19T02:31:44;7.70;99.90
22161;DHT22;49035;48.812;11.762;2023-10-19T02:34:11;7.80;99.90
22161;DHT22;49035;48.812;11.762;2023-10-19T02:36:38;7.70;99.90
22161;DHT22;49035;48.812;11.762;2023-10-19T02:39:06;7.80;99.90
22161;DHT22;49035;48.812;11.762;2023-10-19T02:41:45;7.60;99.90
22161;DHT22;49035;48.812;11.762;2023-10-19T02:44:19;7.60;99.90
22161;DHT22;49035;48.812;11.762;2023-10-19T02:46:50;7.40;99.90
22161;DHT22;49035;48.812;11.762;2023-10-19T02:49:18;7.40;99.90
22161;DHT22;49035;48.812;11.762;2023-10-19T02:51:44;7.30;99.90
22161;DHT22;49035;48.812;11.762;2023-10-19T02:54:12;7.30;99.90
22161;DHT22;49035;48.812;11.762;2023-10-19T02:56:52;7.20;99.90
22161;DHT22;49035;48.812;11.762;2023-10-19T02:59:19;7.30;99.90
22161;DHT22;49035;48.812;11.762;2023-10-19T03:01:52;7.30;99.90
22161;DHT22;49035;48.812;11.762;2023-10-19T03:04:20;7.40;99.90
22161;DHT22;49035;48.812;11.762;2023-10-19T03:06:45;7.50;99.90
22161;DHT22;49035;48.812;11.762;2023-10-19T03:09:11;7.50;99.90
22161;DHT22;49035;48.812;11.762;2023-10-19T03:11:56;7.50;99.90
22161;DHT22;49035;48.812;11.762;2023-10-19T03:14:29;7.60;99.90
22161;DHT22;49035;48.812;11.762;2023-10-19T03:16:57;7.50;99.90
22161;DHT22;49035;48.812;11.762;2023-10-19T03:19:23;7.50;99.90
22161;DHT22;49035;48.812;11.762;2023-10-19T03:21:50;7.50;99.90
22161;DHT22;49035;48.812;11.762;2023-10-19T03:24:17;7.70;99.90
22161;DHT22;49035;48.812;11.762;2023-10-19T03:27:00;7.70;99.90
22161;DHT22;49035;48.812;11.762;2023-10-19T03:29:26;7.80;99.90
22161;DHT22;49035;48.812;11.762;2023-10-19T03:31:58;7.70;99.90
22161;DHT22;49035;48.812;11.762;2023-10-19T03:34:24;7.70;99.90
22161;DHT22;49035;48.812;11.762;2023-10-19T03:36:50;7.60;99.90
22161;DHT22;49035;48.812;11.762;2023-10-19T03:39:20;7.60;99.90
22161;DHT22;49035;48.812;11.762;2023-10-19T03:41:46;7.50;99.90
22161;DHT22;49035;48.812;11.762;2023-10-19T03:44:15;7.50;99.90
22161;DHT22;49035;48.812;11.762;2023-10-19T03:46:50;7.50;99.90
22161;DHT22;49035;48.812;11.762;2023-10-19T03:49:23;7.60;99.90
22161;DHT22;49035;48.812;11.762;2023-10-19T03:52:04;7.70;99.90
22161;DHT22;49035;48.812;11.762;2023-10-19T03:54:36;7.70;99.90
22161;DHT22;49035;48.812;11.762;2023-10-19T03:57:05;7.70;99.90
22161;DHT22;49035;48.812;11.762;2023-10-19T03:59:50;7.80;99.90
22161;DHT22;49035;48.812;11.762;2023-10-19T04:02:21;7.80;99.90
22161;DHT22;49035;48.812;11.762;2023-10-19T04:04:47;7.70;99.90
22161;DHT22;49035;48.812;11.762;2023-10-19T04:07:14;7.70;99.90
22161;DHT22;49035;48.812;11.762;2023-10-19T04:09:54;7.70;99.90
22161;DHT22;49035;48.812;11.762;2023-10-19T04:12:23;7.80;99.90
22161;DHT22;49035;48.812;11.762;2023-10-19T04:14:49;7.70;99.90
22161;DHT22;49035;48.812;11.762;2023-10-19T04:17:15;7.70;99.90
22161;DHT22;49035;48.812;11.762;2023-10-19T04:19:42;7.70;99.90
22161;DHT22;49035;48.812;11.762;2023-10-19T04:22:09;7.70;99.90
22161;DHT22;49035;48.812;11.762;2023-10-19T04:24:47;7.70;99.90
22161;DHT22;49035;48.812;11.762;2023-10-19T04:27:13;7.60;99.90
22161;DHT22;49035;48.812;11.762;2023-10-19T04:29:38;7.60;99.90
22161;DHT22;49035;48.812;11.762;2023-10-19T04:32:06;7.60;99.90
22161;DHT22;49035;48.812;11.762;2023-10-19T04:34:32;7.60;99.90
22161;DHT22;49035;48.812;11.762;2023-10-19T04:36:58;7.60;99.90
22161;DHT22;49035;48.812;11.762;2023-10-19T04:39:23;7.60;99.90
22161;DHT22;49035;48.812;11.762;2023-10-19T04:41:49;7.50;99.90
22161;DHT22;49035;48.812;11.762;2023-10-19T04:44:15;7.60;99.90
22161;DHT22;49035;48.812;11.762;2023-10-19T04:46:42;7.60;99.90
22161;DHT22;49035;48.812;11.762;2023-10-19T04:49:07;7.60;99.90
22161;DHT22;49035;48.812;11.762;2023-10-19T04:51:34;7.60;99.90
22161;DHT22;49035;48.812;11.762;2023-10-19T04:54:01;7.50;99.90
22161;DHT22;49035;48.812;11.762;2023-10-19T04:56:27;7.50;99.90
22161;DHT22;49035;48.812;11.762;2023-10-19T04:58:53;7.50;99.90
22161;DHT22;49035;48.812;11.762;2023-10-19T05:01:19;7.60;99.90
22161;DHT22;49035;48.812;11.762;2023-10-19T05:03:44;7.60;99.90
22161;DHT22;49035;48.812;11.762;2023-10-19T05:06:10;7.70;99.90
22161;DHT22;49035;48.812;11.762;2023-10-19T05:08:36;7.70;99.90
22161;DHT22;49035;48.812;11.762;2023-10-19T05:11:02;7.70;99.90
22161;DHT22;49035;48.812;11.762;2023-10-19T05:13:29;7.70;99.90
22161;DHT22;49035;48.812;11.762;2023-10-19T05:15:55;7.80;99.90
22161;DHT22;49035;48.812;11.762;2023-10-19T05:18:22;8.00;99.90
22161;DHT22;49035;48.812;11.762;2023-10-19T05:20:49;8.00;99.90
22161;DHT22;49035;48.812;11.762;2023-10-19T05:23:16;7.90;99.90
22161;DHT22;49035;48.812;11.762;2023-10-19T05:25:42;8.00;99.90
22161;DHT22;49035;48.812;11.762;2023-10-19T05:28:07;8.00;99.90
22161;DHT22;49035;48.812;11.762;2023-10-19T05:30:35;8.00;99.90
22161;DHT22;49035;48.812;11.762;2023-10-19T05:33:01;7.90;99.90
22161;DHT22;49035;48.812;11.762;2023-10-19T05:35:28;7.90;99.90
22161;DHT22;49035;48.812;11.762;2023-10-19T05:37:55;7.80;99.90
22161;DHT22;49035;48.812;11.762;2023-10-19T05:40:24;7.80;99.90
22161;DHT22;49035;48.812;11.762;2023-10-19T05:42:56;7.70;99.90
22161;DHT22;49035;48.812;11.762;2023-10-19T05:45:22;7.60;99.90
22161;DHT22;49035;48.812;11.762;2023-10-19T05:47:47;7.50;99.90
22161;DHT22;49035;48.812;11.762;2023-10-19T05:50:13;7.40;99.90
22161;DHT22;49035;48.812;11.762;2023-10-19T05:52:42;7.20;99.90
22161;DHT22;49035;48.812;11.762;2023-10-19T05:55:09;7.30;99.90
22161;DHT22;49035;48.812;11.762;2023-10-19T05:57:39;7.30;99.90
22161;DHT22;49035;48.812;11.762;2023-10-19T06:00:11;7.20;99.90
22161;DHT22;49035;48.812;11.762;2023-10-19T06:02:44;7.20;99.90
22161;DHT22;49035;48.812;11.762;2023-10-19T06:05:14;7.10;99.90
22161;DHT22;49035;48.812;11.762;2023-10-19T06:07:48;7.10;99.90
22161;DHT22;49035;48.812;11.762;2023-10-19T06:10:20;7.20;99.90
22161;DHT22;49035;48.812;11.762;2023-10-19T06:12:48;7.30;99.90
22161;DHT22;49035;48.812;11.762;2023-10-19T06:15:16;7.40;99.90
22161;DHT22;49035;48.812;11.762;2023-10-19T06:17:43;7.40;99.90
22161;DHT22;49035;48.812;11.762;2023-10-19T06:20:10;7.60;99.90
22161;DHT22;49035;48.812;11.762;2023-10-19T06:22:57;7.80;99.90
22161;DHT22;49035;48.812;11.762;2023-10-19T06:25:30;7.90;99.90
22161;DHT22;49035;48.812;11.762;2023-10-19T06:27:56;8.10;99.90
22161;DHT22;49035;48.812;11.762;2023-10-19T06:30:23;8.30;99.90
22161;DHT22;49035;48.812;11.762;2023-10-19T06:32:56;8.40;99.90
22161;DHT22;49035;48.812;11.762;2023-10-19T06:35:26;8.50;99.90
22161;DHT22;49035;48.812;11.762;2023-10-19T06:37:53;8.60;99.90
22161;DHT22;49035;48.812;11.762;2023-10-19T06:40:18;8.80;99.90
22161;DHT22;49035;48.812;11.762;2023-10-19T06:42:45;8.90;99.90
22161;DHT22;49035;48.812;11.762;2023-10-19T06:45:11;9.10;99.90
22161;DHT22;49035;48.812;11.762;2023-10-19T06:47:42;9.40;99.90
22161;DHT22;49035;48.812;11.762;2023-10-19T06:50:10;9.60;99.90
22161;DHT22;49035;48.812;11.762;2023-10-19T06:52:39;9.70;99.90
22161;DHT22;49035;48.812;11.762;2023-10-19T06:55:07;9.80;99.90
22161;DHT22;49035;48.812;11.762;2023-10-19T06:57:40;10.00;99.90
22161;DHT22;49035;48.812;11.762;2023-10-19T07:00:06;10.10;99.90
22161;DHT22;49035;48.812;11.762;2023-10-19T07:02:42;10.30;99.90
22161;DHT22;49035;48.812;11.762;2023-10-19T07:05:09;10.30;99.90
22161;DHT22;49035;48.812;11.762;2023-10-19T07:07:40;10.40;99.90
22161;DHT22;49035;48.812;11.762;2023-10-19T07:10:08;10.40;99.90
22161;DHT22;49035;48.812;11.762;2023-10-19T07:12:38;10.40;99.90
22161;DHT22;49035;48.812;11.762;2023-10-19T07:15:05;10.40;99.90
22161;DHT22;49035;48.812;11.762;2023-10-19T07:17:36;10.40;99.90
22161;DHT22;49035;48.812;11.762;2023-10-19T07:20:07;10.50;99.90
22161;DHT22;49035;48.812;11.762;2023-10-19T07:22:34;10.30;99.90
22161;DHT22;49035;48.812;11.762;2023-10-19T07:25:04;10.20;99.90
22161;DHT22;49035;48.812;11.762;2023-10-19T07:27:31;10.40;99.90
22161;DHT22;49035;48.812;11.762;2023-10-19T07:29:57;10.70;99.90
22161;DHT22;49035;48.812;11.762;2023-10-19T07:32:22;10.80;99.90
22161;DHT22;49035;48.812;11.762;2023-10-19T07:34:49;11.10;99.90
22161;DHT22;49035;48.812;11.762;2023-10-19T07:37:14;11.30;99.90
22161;DHT22;49035;48.812;11.762;2023-10-19T07:39:46;11.50;99.90
22161;DHT22;49035;48.812;11.762;2023-10-19T07:42:12;11.80;99.90
22161;DHT22;49035;48.812;11.762;2023-10-19T07:44:37;12.00;99.90
22161;DHT22;49035;48.812;11.762;2023-10-19T07:47:03;12.30;99.90
22161;DHT22;49035;48.812;11.762;2023-10-19T07:49:29;12.60;99.90
22161;DHT22;49035;48.812;11.762;2023-10-19T07:51:54;12.90;99.90
22161;DHT22;49035;48.812;11.762;2023-10-19T07:54:20;13.00;99.90
22161;DHT22;49035;48.812;11.762;2023-10-19T07:56:46;13.20;99.90
22161;DHT22;49035;48.812;11.762;2023-10-19T07:59:12;13.00;99.90
22161;DHT22;49035;48.812;11.762;2023-10-19T08:01:39;12.90;99.90
22161;DHT22;49035;48.812;11.762;2023-10-19T08:04:04;13.10;99.90
22161;DHT22;49035;48.812;11.762;2023-10-19T08:06:31;13.20;99.90
22161;DHT22;49035;48.812;11.762;2023-10-19T08:08:57;13.10;99.90
22161;DHT22;49035;48.812;11.762;2023-10-19T08:11:23;13.20;99.90
22161;DHT22;49035;48.812;11.762;2023-10-19T08:13:49;13.10;99.90
22161;DHT22;49035;48.812;11.762;2023-10-19T08:16:15;13.00;99.90
22161;DHT22;49035;48.812;11.762;2023-10-19T08:18:42;13.10;99.90
22161;DHT22;49035;48.812;11.762;2023-10-19T08:21:08;13.20;99.90
22161;DHT22;49035;48.812;11.762;2023-10-19T08:23:34;13.30;99.90
22161;DHT22;49035;48.812;11.762;2023-10-19T08:26:00;13.30;99.90
22161;DHT22;49035;48.812;11.762;2023-10-19T08:28:25;13.40;99.90
22161;DHT22;49035;48.812;11.762;2023-10-19T08:30:51;13.60;99.90
22161;DHT22;49035;48.812;11.762;2023-10-19T08:33:26;13.60;99.90
22161;DHT22;49035;48.812;11.762;2023-10-19T08:35:53;13.70;99.90
22161;DHT22;49035;48.812;11.762;2023-10-19T08:38:19;13.90;99.90
22161;DHT22;49035;48.812;11.762;2023-10-19T08:40:45;14.00;99.90
22161;DHT22;49035;48.812;11.762;2023-10-19T08:43:12;14.10;99.90
22161;DHT22;49035;48.812;11.762;2023-10-19T08:45:43;14.10;99.90
22161;DHT22;49035;48.812;11.762;2023-10-19T08:48:09;13.90;99.90
22161;DHT22;49035;48.812;11.762;2023-10-19T08:50:36;13.80;99.90
22161;DHT22;49035;48.812;11.762;2023-10-19T08:53:08;13.80;99.90
22161;DHT22;49035;48.812;11.762;2023-10-19T08:55:40;13.90;99.90
22161;DHT22;49035;48.812;11.762;2023-10-19T08:58:06;14.00;99.90
22161;DHT22;49035;48.812;11.762;2023-10-19T09:00:51;14.10;99.90
22161;DHT22;49035;48.812;11.762;2023-10-19T09:03:19;14.40;99.90
22161;DHT22;49035;48.812;11.762;2023-10-19T09:05:47;14.40;99.90
22161;DHT22;49035;48.812;11.762;2023-10-19T09:08:17;14.50;99.90
22161;DHT22;49035;48.812;11.762;2023-10-19T09:10:44;14.50;99.90
22161;DHT22;49035;48.812;11.762;2023-10-19T09:13:14;14.70;99.90
22161;DHT22;49035;48.812;11.762;2023-10-19T09:15:44;14.80;99.90
22161;DHT22;49035;48.812;11.762;2023-10-19T09:18:24;14.90;99.90
22161;DHT22;49035;48.812;11.762;2023-10-19T09:20:51;14.60;99.90
22161;DHT22;49035;48.812;11.762;2023-10-19T09:23:40;14.50;99.90
22161;DHT22;49035;48.812;11.762;2023-10-19T09:26:07;14.20;99.90
22161;DHT22;49035;48.812;11.762;2023-10-19T09:28:37;14.20;99.90
22161;DHT22;49035;48.812;11.762;2023-10-19T09:31:03;14.10;99.90
22161;DHT22;49035;48.812;11.762;2023-10-19T09:33:32;14.10;99.90
22161;DHT22;49035;48.812;11.762;2023-10-19T09:36:00;14.10;99.90
22161;DHT22;49035;48.812;11.762;2023-10-19T09:38:26;14.20;99.90
22161;DHT22;49035;48.812;11.762;2023-10-19T09:40:53;14.20;99.90
22161;DHT22;49035;48.812;11.762;2023-10-19T09:43:45;14.20;99.90
22161;DHT22;49035;48.812;11.762;2023-10-19T09:46:12;13.90;99.90
22161;DHT22;49035;48.812;11.762;2023-10-19T09:48:42;13.90;99.90
22161;DHT22;49035;48.812;11.762;2023-10-19T09:51:11;13.80;99.90
22161;DHT22;49035;48.812;11.762;2023-10-19T09:53:38;13.70;99.90
22161;DHT22;49035;48.812;11.762;2023-10-19T09:56:08;13.60;99.90
22161;DHT22;49035;48.812;11.762;2023-10-19T09:58:44;13.60;99.90
22161;DHT22;49035;48.812;11.762;2023-10-19T10:01:10;13.60;99.90
22161;DHT22;49035;48.812;11.762;2023-10-19T10:03:52;13.50;99.90
22161;DHT22;49035;48.812;11.762;2023-10-19T10:09:19;13.50;99.90
22161;DHT22;49035;48.812;11.762;2023-10-19T10:11:49;13.50;99.90
22161;DHT22;49035;48.812;11.762;2023-10-19T10:14:25;13.50;99.90
22161;DHT22;49035;48.812;11.762;2023-10-19T10:17:03;13.20;99.90
22161;DHT22;49035;48.812;11.762;2023-10-19T10:19:30;13.20;99.90
22161;DHT22;49035;48.812;11.762;2023-10-19T10:22:10;13.20;99.90
22161;DHT22;49035;48.812;11.762;2023-10-19T10:24:43;13.30;99.90
22161;DHT22;49035;48.812;11.762;2023-10-19T10:27:09;13.20;99.90
22161;DHT22;49035;48.812;11.762;2023-10-19T10:30:00;13.10;99.90
22161;DHT22;49035;48.812;11.762;2023-10-19T10:38:08;12.60;99.90
22161;DHT22;49035;48.812;11.762;2023-10-19T10:40:47;12.50;99.90
22161;DHT22;49035;48.812;11.762;2023-10-19T10:43:13;12.40;99.90
22161;DHT22;49035;48.812;11.762;2023-10-19T10:45:39;12.20;99.90
22161;DHT22;49035;48.812;11.762;2023-10-19T10:48:14;12.20;99.90
22161;DHT22;49035;48.812;11.762;2023-10-19T10:50:40;12.10;99.90
22161;DHT22;49035;48.812;11.762;2023-10-19T10:53:12;12.00;99.90
22161;DHT22;49035;48.812;11.762;2023-10-19T10:55:38;11.90;99.90
22161;DHT22;49035;48.812;11.762;2023-10-19T10:58:04;11.90;99.90
22161;DHT22;49035;48.812;11.762;2023-10-19T11:00:30;11.80;99.90
22161;DHT22;49035;48.812;11.762;2023-10-19T11:03:06;11.80;99.90
22161;DHT22;49035;48.812;11.762;2023-10-19T11:05:36;12.00;99.90
22161;DHT22;49035;48.812;11.762;2023-10-19T11:08:09;12.00;99.90
22161;DHT22;49035;48.812;11.762;2023-10-19T11:10:35;12.10;99.90
22161;DHT22;49035;48.812;11.762;2023-10-19T11:13:06;12.20;99.90
22161;DHT22;49035;48.812;11.762;2023-10-19T11:15:39;12.40;99.90
22161;DHT22;49035;48.812;11.762;2023-10-19T11:18:05;12.50;99.90
22161;DHT22;49035;48.812;11.762;2023-10-19T11:20:34;12.70;99.90
22161;DHT22;49035;48.812;11.762;2023-10-19T11:23:01;12.80;99.90
22161;DHT22;49035;48.812;11.762;2023-10-19T11:25:27;12.90;99.90
22161;DHT22;49035;48.812;11.762;2023-10-19T11:27:58;13.00;99.90
22161;DHT22;49035;48.812;11.762;2023-10-19T11:30:28;13.00;99.90
22161;DHT22;49035;48.812;11.762;2023-10-19T11:32:55;12.90;99.90
22161;DHT22;49035;48.812;11.762;2023-10-19T11:35:34;12.90;99.90
22161;DHT22;49035;48.812;11.762;2023-10-19T11:38:00;13.10;99.90
22161;DHT22;49035;48.812;11.762;2023-10-19T11:40:27;13.30;99.90
22161;DHT22;49035;48.812;11.762;2023-10-19T11:42:54;13.60;99.90
22161;DHT22;49035;48.812;11.762;2023-10-19T11:45:24;13.70;99.90
22161;DHT22;49035;48.812;11.762;2023-10-19T11:47:49;13.90;99.90
22161;DHT22;49035;48.812;11.762;2023-10-19T11:50:16;13.90;99.90
22161;DHT22;49035;48.812;11.762;2023-10-19T11:52:43;13.80;99.90
22161;DHT22;49035;48.812;11.762;2023-10-19T11:55:09;14.00;99.90
22161;DHT22;49035;48.812;11.762;2023-10-19T11:57:35;14.10;99.90
22161;DHT22;49035;48.812;11.762;2023-10-19T12:00:03;14.40;99.90
22161;DHT22;49035;48.812;11.762;2023-10-19T12:02:36;14.50;99.90
22161;DHT22;49035;48.812;11.762;2023-10-19T12:05:04;14.50;99.90
22161;DHT22;49035;48.812;11.762;2023-10-19T12:07:30;14.30;99.90
22161;DHT22;49035;48.812;11.762;2023-10-19T12:09:58;14.30;99.90
22161;DHT22;49035;48.812;11.762;2023-10-19T12:12:23;14.60;99.90
22161;DHT22;49035;48.812;11.762;2023-10-19T12:14:49;14.90;99.90
22161;DHT22;49035;48.812;11.762;2023-10-19T12:17:15;15.00;99.90
22161;DHT22;49035;48.812;11.762;2023-10-19T12:19:43;15.20;99.90
22161;DHT22;49035;48.812;11.762;2023-10-19T12:22:08;15.40;99.90
22161;DHT22;49035;48.812;11.762;2023-10-19T12:24:34;15.30;99.90
22161;DHT22;49035;48.812;11.762;2023-10-19T12:26:59;15.30;99.90
22161;DHT22;49035;48.812;11.762;2023-10-19T12:29:25;15.30;99.90
22161;DHT22;49035;48.812;11.762;2023-10-19T12:31:50;15.60;99.90
22161;DHT22;49035;48.812;11.762;2023-10-19T12:34:16;15.50;99.90
22161;DHT22;49035;48.812;11.762;2023-10-19T12:36:42;15.00;99.90
22161;DHT22;49035;48.812;11.762;2023-10-19T12:39:10;14.70;99.90
22161;DHT22;49035;48.812;11.762;2023-10-19T12:41:41;14.60;99.90
22161;DHT22;49035;48.812;11.762;2023-10-19T12:44:07;14.60;99.90
22161;DHT22;49035;48.812;11.762;2023-10-19T12:46:37;14.50;99.90
22161;DHT22;49035;48.812;11.762;2023-10-19T12:49:06;14.40;99.90
22161;DHT22;49035;48.812;11.762;2023-10-19T12:51:38;14.30;99.90
22161;DHT22;49035;48.812;11.762;2023-10-19T12:54:07;14.00;99.90
22161;DHT22;49035;48.812;11.762;2023-10-19T12:56:35;13.70;99.90
22161;DHT22;49035;48.812;11.762;2023-10-19T12:59:01;13.40;99.90
22161;DHT22;49035;48.812;11.762;2023-10-19T13:01:26;13.30;99.90
22161;DHT22;49035;48.812;11.762;2023-10-19T13:03:53;13.10;99.90
22161;DHT22;49035;48.812;11.762;2023-10-19T13:06:19;13.10;99.90
22161;DHT22;49035;48.812;11.762;2023-10-19T13:08:49;13.20;99.90
22161;DHT22;49035;48.812;11.762;2023-10-19T13:11:15;13.30;99.90
22161;DHT22;49035;48.812;11.762;2023-10-19T13:13:40;13.50;99.90
22161;DHT22;49035;48.812;11.762;2023-10-19T13:16:06;13.70;99.90
22161;DHT22;49035;48.812;11.762;2023-10-19T13:18:35;14.00;99.90
22161;DHT22;49035;48.812;11.762;2023-10-19T13:21:01;14.10;99.90
22161;DHT22;49035;48.812;11.762;2023-10-19T13:23:33;14.20;99.90
22161;DHT22;49035;48.812;11.762;2023-10-19T13:25:59;14.20;99.90
22161;DHT22;49035;48.812;11.762;2023-10-19T13:28:40;14.40;99.90
22161;DHT22;49035;48.812;11.762;2023-10-19T13:31:05;14.80;99.90
22161;DHT22;49035;48.812;11.762;2023-10-19T13:33:35;14.90;99.90
22161;DHT22;49035;48.812;11.762;2023-10-19T13:36:00;14.80;99.90
22161;DHT22;49035;48.812;11.762;2023-10-19T13:38:26;14.80;99.90
22161;DHT22;49035;48.812;11.762;2023-10-19T13:40:52;14.70;99.90
22161;DHT22;49035;48.812;11.762;2023-10-19T13:43:19;14.70;99.90
22161;DHT22;49035;48.812;11.762;2023-10-19T13:45:46;14.60;99.90
22161;DHT22;49035;48.812;11.762;2023-10-19T13:48:13;14.50;99.90
22161;DHT22;49035;48.812;11.762;2023-10-19T13:50:47;14.40;99.90
22161;DHT22;49035;48.812;11.762;2023-10-19T13:53:17;14.40;99.90
22161;DHT22;49035;48.812;11.762;2023-10-19T13:55:43;14.40;99.90
22161;DHT22;49035;48.812;11.762;2023-10-19T13:58:09;14.50;99.90
22161;DHT22;49035;48.812;11.762;2023-10-19T14:00:35;14.60;99.90
22161;DHT22;49035;48.812;11.762;2023-10-19T14:03:09;14.80;99.90
22161;DHT22;49035;48.812;11.762;2023-10-19T14:05:44;14.70;99.90
22161;DHT22;49035;48.812;11.762;2023-10-19T14:08:15;14.60;99.90
22161;DHT22;49035;48.812;11.762;2023-10-19T14:10:41;14.40;99.90
22161;DHT22;49035;48.812;11.762;2023-10-19T14:13:08;14.30;99.90
22161;DHT22;49035;48.812;11.762;2023-10-19T14:15:34;14.30;99.90
22161;DHT22;49035;48.812;11.762;2023-10-19T14:18:00;14.20;99.90
22161;DHT22;49035;48.812;11.762;2023-10-19T14:20:28;14.10;99.90
22161;DHT22;49035;48.812;11.762;2023-10-19T14:22:55;14.20;99.90
22161;DHT22;49035;48.812;11.762;2023-10-19T14:25:21;14.20;99.90
22161;DHT22;49035;48.812;11.762;2023-10-19T14:27:51;14.20;99.90
22161;DHT22;49035;48.812;11.762;2023-10-19T14:30:21;14.20;99.90
22161;DHT22;49035;48.812;11.762;2023-10-19T14:32:47;14.10;99.90
22161;DHT22;49035;48.812;11.762;2023-10-19T14:35:15;14.00;99.90
22161;DHT22;49035;48.812;11.762;2023-10-19T14:37:42;13.90;99.90
22161;DHT22;49035;48.812;11.762;2023-10-19T14:40:09;13.90;99.90
22161;DHT22;49035;48.812;11.762;2023-10-19T14:42:39;13.90;99.90
22161;DHT22;49035;48.812;11.762;2023-10-19T14:45:13;13.80;99.90
22161;DHT22;49035;48.812;11.762;2023-10-19T14:47:47;13.80;99.90
22161;DHT22;49035;48.812;11.762;2023-10-19T14:50:15;13.80;99.90
22161;DHT22;49035;48.812;11.762;2023-10-19T14:52:41;13.70;99.90
22161;DHT22;49035;48.812;11.762;2023-10-19T14:55:08;13.70;99.90
22161;DHT22;49035;48.812;11.762;2023-10-19T14:57:36;13.70;99.90
22161;DHT22;49035;48.812;11.762;2023-10-19T15:00:09;13.70;99.90
22161;DHT22;49035;48.812;11.762;2023-10-19T15:02:48;13.60;99.90
22161;DHT22;49035;48.812;11.762;2023-10-19T15:05:14;13.60;99.90
22161;DHT22;49035;48.812;11.762;2023-10-19T15:07:44;13.70;99.90
22161;DHT22;49035;48.812;11.762;2023-10-19T15:10:11;13.60;99.90
22161;DHT22;49035;48.812;11.762;2023-10-19T15:12:41;13.40;99.90
22161;DHT22;49035;48.812;11.762;2023-10-19T15:15:10;13.30;99.90
22161;DHT22;49035;48.812;11.762;2023-10-19T15:17:45;13.00;99.90
22161;DHT22;49035;48.812;11.762;2023-10-19T15:20:13;12.80;99.90
22161;DHT22;49035;48.812;11.762;2023-10-19T15:22:43;12.70;99.90
22161;DHT22;49035;48.812;11.762;2023-10-19T15:25:10;12.50;99.90
22161;DHT22;49035;48.812;11.762;2023-10-19T15:27:41;12.50;99.90
22161;DHT22;49035;48.812;11.762;2023-10-19T15:30:08;12.30;99.90
22161;DHT22;49035;48.812;11.762;2023-10-19T15:32:35;12.40;99.90
22161;DHT22;49035;48.812;11.762;2023-10-19T15:35:01;12.40;99.90
22161;DHT22;49035;48.812;11.762;2023-10-19T15:37:27;12.30;99.90
22161;DHT22;49035;48.812;11.762;2023-10-19T15:39:53;12.20;99.90
22161;DHT22;49035;48.812;11.762;2023-10-19T15:42:19;12.20;99.90
22161;DHT22;49035;48.812;11.762;2023-10-19T15:44:47;12.10;99.90
22161;DHT22;49035;48.812;11.762;2023-10-19T15:47:13;12.10;99.90